createdAt,value
2016-11-11T22:35:56.225Z,1013.01
2016-11-11T22:36:56.240Z,1013.01
2016-11-11T22:37:56.252Z,1013
2016-11-11T22:38:56.266Z,1013.01
2016-11-11T22:39:56.278Z,1013.03
2016-11-11T22:40:56.292Z,1012.98
2016-11-11T22:41:56.306Z,1012.99
2016-11-11T22:42:56.318Z,1013.02
2016-11-11T22:43:56.335Z,1013.02
2016-11-11T22:44:56.349Z,1012.97
2016-11-11T22:45:56.360Z,1012.94
2016-11-11T22:46:56.372Z,1012.92
2016-11-11T22:47:56.386Z,1012.93
2016-11-11T22:48:56.406Z,1012.91
2016-11-11T22:49:56.409Z,1012.93
2016-11-11T22:50:56.423Z,1012.87
2016-11-11T22:51:56.436Z,1012.89
2016-11-11T22:52:56.453Z,1012.84
2016-11-11T22:53:56.464Z,1012.82
2016-11-11T22:54:56.477Z,1012.83
2016-11-11T22:55:56.487Z,1012.83
2016-11-11T22:56:56.503Z,1012.82
2016-11-11T22:57:56.517Z,1012.82
2016-11-11T22:58:56.530Z,1012.82
2016-11-11T22:59:56.540Z,1012.86
2016-11-11T23:00:56.556Z,1012.83
2016-11-11T23:01:56.568Z,1012.82
2016-11-11T23:02:56.581Z,1012.81
2016-11-11T23:03:56.592Z,1012.86
2016-11-11T23:04:56.605Z,1012.8
2016-11-11T23:05:56.618Z,1012.82
2016-11-11T23:06:56.629Z,1012.82
2016-11-11T23:07:56.645Z,1012.81
2016-11-11T23:08:56.658Z,1012.8
2016-11-11T23:09:56.674Z,1012.82
2016-11-11T23:10:56.681Z,1012.8
2016-11-11T23:11:56.696Z,1012.82
2016-11-11T23:12:56.710Z,1012.78
2016-11-11T23:13:56.721Z,1012.78
2016-11-11T23:14:56.735Z,1012.75
2016-11-11T23:15:56.748Z,1012.75
2016-11-11T23:16:56.760Z,1012.75
2016-11-11T23:17:56.772Z,1012.73
2016-11-11T23:18:56.793Z,1012.78
2016-11-11T23:19:56.800Z,1012.8
2016-11-11T23:20:56.810Z,1012.77
2016-11-11T23:21:56.826Z,1012.74
2016-11-11T23:22:56.839Z,1012.67
2016-11-11T23:23:56.848Z,1012.75
2016-11-11T23:24:56.863Z,1012.7
2016-11-11T23:25:56.877Z,1012.72
2016-11-11T23:26:56.888Z,1012.72
2016-11-11T23:27:56.900Z,1012.73
2016-11-11T23:28:56.912Z,1012.68
2016-11-11T23:29:56.925Z,1012.67
2016-11-11T23:30:56.940Z,1012.7
2016-11-11T23:31:56.954Z,1012.71
2016-11-11T23:32:56.964Z,1012.67
2016-11-11T23:33:56.976Z,1012.72
2016-11-11T23:34:56.992Z,1012.71
2016-11-11T23:35:57.002Z,1012.74
2016-11-11T23:36:57.014Z,1012.75
2016-11-11T23:37:57.029Z,1012.77
2016-11-11T23:38:57.042Z,1012.74
2016-11-11T23:39:57.053Z,1012.75
2016-11-11T23:40:57.065Z,1012.77
2016-11-11T23:41:57.077Z,1012.74
2016-11-11T23:42:57.093Z,1012.77
2016-11-11T23:43:57.103Z,1012.8
2016-11-11T23:44:57.116Z,1012.77
2016-11-11T23:45:57.129Z,1012.8
2016-11-11T23:46:57.172Z,1012.78
2016-11-11T23:47:57.155Z,1012.74
2016-11-11T23:48:57.173Z,1012.77
2016-11-11T23:49:57.181Z,1012.77
2016-11-11T23:50:57.192Z,1012.8
2016-11-11T23:51:57.207Z,1012.81
2016-11-11T23:52:57.218Z,1012.85
2016-11-11T23:53:57.233Z,1012.85
2016-11-11T23:54:57.242Z,1012.88
2016-11-11T23:55:57.256Z,1012.89
2016-11-11T23:56:57.269Z,1012.89
2016-11-11T23:57:57.282Z,1012.95
2016-11-11T23:58:57.294Z,1012.9
2016-11-11T23:59:57.306Z,1012.93
